MMAS/AGU METAR and TAF weather

Enter ICAO airport designator
Station Type Date Time Source
MMAS METAR 2019/02/16 18:01 UTC NOAA

MMAS 161801Z RTD 20007KT 10SM SKC 25/04 A3019 RMK SLP063 PRESFR


Station Type Date Time Source
MMAS Decoded METAR 2019/02/16 18:01 UTC NOAA

Aguascalientes, Ags., Mexico (MMAS) 21-53N 102-18W
Feb 16, 2019 - 01:01 PM EST / 2019.02.16 1801 UTC
Wind: from the SSW (200 degrees) at 8 MPH (7 KT):0
Visibility: 10 mile(s):0
Sky conditions: clear
Temperature: 77 F (25 C)
Dew Point: 39 F (4 C)
Relative Humidity: 25%
Pressure (altimeter): 30.19 in. Hg (1022 hPa)
Pressure tendency: falling rapidly
ob: MMAS 161801Z RTD 20007KT 10SM SKC 25/04 A3019 RMK SLP063 PRESFR
cycle: 18

Station Type Date Time Source
MMAS TAF 2019/02/16 18:51 UTC NOAA

TAF TAF MMAS 161648Z 1618/1718 22010KT P6SM SKC
BECMG 1701/1702 00000KT
FM171700 22010KT P6SM SKC


Example: see airport list